Time;durP1;ratioP1;P1;durP2;ratioP2;P2;SDS_P1;SDS_P2;PMS_P1;PMS_P2;Temp;Humidity;BMP_temperature;BMP_pressure;BME280_temperature;BME280_humidity;BME280_pressure;Samples;Min_cycle;Max_cycle;Signal;HPM_P1;HPM_P2
2022/06/02 00:01:03;;;;;;;11.30;6.20;;;19.90;35.50;;;;;;5023151;28;20423;-76
2022/06/02 00:03:38;;;;;;;13.50;5.80;;;20.10;35.10;;;;;;5026377;28;20418;-76
2022/06/02 00:06:30;;;;;;;7.50;5.90;;;20.10;33.90;;;;;;5022198;28;20453;-75
2022/06/02 00:09:01;;;;;;;7.73;5.77;;;19.90;35.50;;;;;;5024861;28;20456;-75
2022/06/02 00:11:53;;;;;;;10.90;6.00;;;20.10;33.90;;;;;;5020815;28;20421;-75
2022/06/02 00:14:39;;;;;;;10.60;5.83;;;20.20;34.40;;;;;;5024827;28;20406;-75
2022/06/02 00:17:19;;;;;;;12.07;6.10;;;20.10;33.80;;;;;;5022786;28;20485;-75
2022/06/02 00:20:11;;;;;;;10.10;5.90;;;19.90;35.10;;;;;;5030491;28;20497;-75
2022/06/02 00:23:17;;;;;;;11.60;6.67;;;19.80;34.20;;;;;;5017922;28;20923;-75
2022/06/02 00:26:21;;;;;;;7.87;5.80;;;19.70;34.70;;;;;;4992234;28;20911;-76
2022/06/02 00:28:59;;;;;;;8.87;5.23;;;19.50;35.20;;;;;;5026260;28;20665;-76
2022/06/02 00:31:46;;;;;;;10.33;5.77;;;19.40;35.20;;;;;;5024379;28;20961;-75
2022/06/02 00:34:16;;;;;;;12.03;6.13;;;19.40;36.70;;;;;;5020082;28;20496;-74
2022/06/02 00:36:56;;;;;;;8.00;5.70;;;19.50;35.50;;;;;;5025467;28;20492;-75
2022/06/02 00:39:22;;;;;;;8.87;6.30;;;19.40;35.80;;;;;;5015483;28;20420;-75
2022/06/02 00:41:58;;;;;;;7.60;5.57;;;19.20;36.70;;;;;;5027529;28;20441;-75
2022/06/02 00:44:36;;;;;;;9.60;5.70;;;19.30;36.70;;;;;;5026848;28;20216;-76
2022/06/02 00:47:31;;;;;;;11.13;5.97;;;19.10;36.50;;;;;;5027268;28;20565;-75
2022/06/02 00:50:10;;;;;;;11.77;6.70;;;19.00;37.00;;;;;;5028135;28;20435;-75
2022/06/02 00:52:53;;;;;;;11.60;6.50;;;19.30;36.20;;;;;;5032833;28;20515;-76
2022/06/02 00:58:34;;;;;;;20.80;8.10;;;19.20;36.50;;;;;;5026550;28;20633;-76
2022/06/02 01:01:18;;;;;;;10.10;7.40;;;19.20;35.20;;;;;;5026974;28;20447;-76
2022/06/02 01:03:47;;;;;;;10.40;7.30;;;19.10;37.10;;;;;;5031320;28;20931;-76
2022/06/02 01:06:33;;;;;;;9.07;6.67;;;18.90;37.30;;;;;;5027382;28;20939;-75
2022/06/02 01:09:36;;;;;;;10.37;7.10;;;18.80;37.10;;;;;;5029835;28;20432;-76
2022/06/02 01:12:08;;;;;;;9.83;6.77;;;18.60;37.60;;;;;;5025899;28;20437;-76
2022/06/02 01:15:15;;;;;;;10.50;6.70;;;18.70;37.00;;;;;;5009459;28;20446;-74
2022/06/02 01:17:56;;;;;;;9.60;6.90;;;18.70;37.90;;;;;;5021677;28;20474;-75
2022/06/02 01:20:24;;;;;;;9.70;6.83;;;18.60;38.50;;;;;;5033744;28;20463;-75
2022/06/02 01:23:24;;;;;;;10.77;6.93;;;18.80;37.20;;;;;;5026571;28;20441;-76
2022/06/02 01:26:01;;;;;;;8.73;6.80;;;19.00;35.40;;;;;;5027321;28;20456;-75
2022/06/02 01:28:36;;;;;;;9.17;6.20;;;18.80;37.70;;;;;;5006178;28;20423;-75
2022/06/02 01:31:10;;;;;;;9.27;6.30;;;18.70;38.00;;;;;;5030699;28;20427;-75
2022/06/02 01:33:48;;;;;;;8.70;5.90;;;18.70;36.90;;;;;;5011836;28;20447;-75
2022/06/02 01:36:43;;;;;;;9.13;6.33;;;18.60;36.50;;;;;;5027858;28;20958;-75
2022/06/02 01:39:18;;;;;;;9.77;6.07;;;18.50;37.00;;;;;;5032232;28;20428;-76
2022/06/02 01:41:43;;;;;;;9.80;5.80;;;18.60;36.50;;;;;;5031630;28;20467;-73
2022/06/02 01:44:22;;;;;;;10.33;6.60;;;18.50;36.20;;;;;;5018161;28;20459;-76
2022/06/02 01:47:01;;;;;;;9.90;6.00;;;18.60;36.10;;;;;;5024649;28;20204;-75
2022/06/02 01:49:30;;;;;;;7.77;5.37;;;18.50;36.70;;;;;;5025738;28;20418;-75
2022/06/02 01:52:19;;;;;;;8.33;5.53;;;18.40;35.60;;;;;;5025871;28;20489;-74
2022/06/02 01:54:56;;;;;;;8.17;5.30;;;18.30;36.40;;;;;;5013271;28;20428;-75
2022/06/02 01:57:46;;;;;;;7.97;5.50;;;18.30;36.60;;;;;;5031586;28;20817;-74
2022/06/02 02:00:12;;;;;;;6.60;4.97;;;18.20;36.20;;;;;;5026882;28;20477;-75
2022/06/02 02:02:59;;;;;;;9.40;5.50;;;18.20;36.60;;;;;;5030564;28;20864;-74
2022/06/02 02:05:46;;;;;;;7.03;5.20;;;18.10;34.90;;;;;;5023156;28;20622;-76
2022/06/02 02:08:42;;;;;;;6.87;4.80;;;18.10;35.30;;;;;;5030761;28;20415;-74
2022/06/02 02:11:20;;;;;;;6.93;4.67;;;18.10;34.60;;;;;;5031992;28;20423;-76
2022/06/02 02:14:16;;;;;;;13.30;4.60;;;18.00;35.40;;;;;;5029806;28;21297;-75
2022/06/02 02:17:10;;;;;;;8.23;4.90;;;18.00;35.80;;;;;;5011813;28;20554;-75
2022/06/02 02:19:54;;;;;;;7.70;4.90;;;18.10;35.60;;;;;;5022315;28;20439;-74
2022/06/02 02:22:34;;;;;;;9.07;5.40;;;18.10;35.70;;;;;;5022401;28;20473;-75
2022/06/02 02:25:33;;;;;;;7.10;5.13;;;18.20;35.30;;;;;;5025256;28;20418;-75
2022/06/02 02:28:37;;;;;;;7.00;5.30;;;18.20;35.10;;;;;;5021066;28;20419;-75
2022/06/02 02:31:17;;;;;;;8.60;4.87;;;18.10;34.90;;;;;;4990114;28;20441;-75
2022/06/02 02:33:55;;;;;;;7.90;5.00;;;18.00;34.60;;;;;;4973034;28;20451;-75
2022/06/02 02:36:44;;;;;;;12.37;4.87;;;18.10;35.00;;;;;;4987558;28;20546;-74
2022/06/02 02:39:37;;;;;;;8.40;5.33;;;18.00;35.10;;;;;;4986790;28;20456;-80
2022/06/02 02:42:28;;;;;;;7.20;5.10;;;18.10;35.00;;;;;;4988660;28;20433;-75
2022/06/02 02:45:24;;;;;;;8.53;5.10;;;18.20;34.60;;;;;;4972323;28;20504;-75
2022/06/02 02:48:05;;;;;;;6.30;4.20;;;18.00;35.20;;;;;;4986002;28;20431;-75
2022/06/02 02:50:46;;;;;;;9.10;5.23;;;18.00;33.90;;;;;;4972895;28;20910;-75
2022/06/02 02:53:29;;;;;;;9.97;5.60;;;18.10;34.60;;;;;;4988952;28;21056;-75
2022/06/02 02:56:21;;;;;;;7.10;4.83;;;17.90;35.80;;;;;;4988752;28;20554;-77
2022/06/02 02:58:57;;;;;;;8.40;5.50;;;18.00;35.60;;;;;;4989141;28;20437;-75
2022/06/02 03:01:37;;;;;;;9.70;4.87;;;17.90;35.70;;;;;;4989006;28;20457;-75
2022/06/02 03:04:19;;;;;;;7.33;5.07;;;17.80;34.70;;;;;;4988025;28;20427;-75
2022/06/02 03:06:45;;;;;;;6.73;5.23;;;17.70;36.50;;;;;;5002677;28;20462;-75
2022/06/02 03:09:16;;;;;;;8.60;5.60;;;17.60;36.90;;;;;;5023410;28;20948;-76
2022/06/02 03:11:53;;;;;;;7.80;5.43;;;17.90;36.80;;;;;;5026888;28;20407;-74
2022/06/02 03:14:52;;;;;;;9.40;5.30;;;17.80;36.70;;;;;;5022208;28;20996;-76
2022/06/02 03:17:36;;;;;;;7.83;5.43;;;17.70;37.20;;;;;;5019109;28;20489;-75
2022/06/02 03:20:11;;;;;;;10.93;5.10;;;17.70;37.20;;;;;;5027400;28;20825;-75
2022/06/02 03:22:55;;;;;;;10.10;5.30;;;17.70;37.10;;;;;;5020291;28;20524;-75
2022/06/02 03:25:44;;;;;;;6.43;4.40;;;17.70;37.70;;;;;;5030140;28;20403;-74
2022/06/02 03:28:19;;;;;;;7.30;5.07;;;17.60;38.00;;;;;;5020726;28;20439;-75
2022/06/02 03:31:12;;;;;;;8.03;5.10;;;17.60;37.10;;;;;;5018662;28;20431;-75
2022/06/02 03:33:50;;;;;;;8.90;5.50;;;17.80;36.70;;;;;;5014351;28;20433;-76
2022/06/02 03:36:30;;;;;;;9.90;5.40;;;17.70;38.20;;;;;;4982945;28;1150123;-76
2022/06/02 03:39:06;;;;;;;13.57;5.83;;;17.60;37.20;;;;;;5023661;28;20604;-74
2022/06/02 03:42:06;;;;;;;9.33;5.80;;;17.80;37.10;;;;;;5017295;28;20453;-75
2022/06/02 03:44:49;;;;;;;8.67;5.73;;;17.80;37.00;;;;;;5025323;28;20479;-75
2022/06/02 03:47:49;;;;;;;6.73;5.30;;;17.90;36.40;;;;;;5020130;28;20535;-75
2022/06/02 03:50:55;;;;;;;17.00;6.00;;;17.80;36.40;;;;;;5022485;28;20773;-75
2022/06/02 03:53:48;;;;;;;10.63;5.40;;;18.10;36.10;;;;;;4942432;28;20596;-75
2022/06/02 03:56:14;;;;;;;7.10;5.40;;;18.00;35.50;;;;;;4951461;28;20454;-75
2022/06/02 03:59:05;;;;;;;8.37;5.20;;;17.90;36.50;;;;;;4950244;29;21031;-75
2022/06/02 04:01:39;;;;;;;8.60;5.53;;;17.90;36.80;;;;;;4950097;29;20684;-74
2022/06/02 04:04:19;;;;;;;11.57;5.83;;;17.80;36.50;;;;;;4942214;29;20802;-74
2022/06/02 04:07:15;;;;;;;9.63;5.50;;;17.80;37.30;;;;;;4944572;28;20986;-75
2022/06/02 04:09:43;;;;;;;14.03;5.30;;;17.80;38.00;;;;;;4941731;28;20453;-75
2022/06/02 04:15:43;;;;;;;8.17;5.30;;;17.80;36.30;;;;;;4942803;28;20485;-75
2022/06/02 04:18:29;;;;;;;7.53;5.00;;;17.80;36.80;;;;;;4943209;29;20469;-75
2022/06/02 04:21:16;;;;;;;7.80;5.03;;;17.90;36.20;;;;;;4941423;29;20465;-75
2022/06/02 04:24:06;;;;;;;11.77;5.03;;;18.00;36.30;;;;;;4949430;29;20439;-75
2022/06/02 04:26:52;;;;;;;12.70;5.50;;;18.10;35.90;;;;;;4963959;28;20514;-75
2022/06/02 04:29:29;;;;;;;13.90;5.70;;;18.10;36.30;;;;;;4995136;28;20907;-76
2022/06/02 04:32:06;;;;;;;9.37;5.30;;;18.10;36.50;;;;;;5027767;28;20458;-76
2022/06/02 04:34:44;;;;;;;7.90;5.30;;;18.10;35.00;;;;;;5026530;28;20441;-75
2022/06/02 04:37:35;;;;;;;11.07;6.00;;;18.10;34.90;;;;;;5027029;28;20472;-75
2022/06/02 04:40:16;;;;;;;7.90;5.20;;;18.10;34.80;;;;;;5028733;28;20425;-75
2022/06/02 04:43:09;;;;;;;7.80;4.90;;;18.10;34.30;;;;;;5024316;28;20922;-75
2022/06/02 04:46:04;;;;;;;12.20;5.40;;;18.30;35.30;;;;;;5029863;28;20922;-76
2022/06/02 04:48:58;;;;;;;7.53;5.10;;;18.40;35.00;;;;;;5034039;28;20431;-76
2022/06/02 04:51:45;;;;;;;8.13;4.67;;;18.40;34.30;;;;;;5025537;28;20430;-76
2022/06/02 04:54:25;;;;;;;8.73;5.37;;;18.30;33.20;;;;;;5021749;28;20486;-75
2022/06/02 04:57:16;;;;;;;6.90;4.33;;;18.50;33.80;;;;;;5029580;28;20468;-76
2022/06/02 05:00:18;;;;;;;7.13;4.47;;;18.60;32.80;;;;;;5033550;28;20431;-75
2022/06/02 05:02:57;;;;;;;8.33;4.20;;;18.60;30.00;;;;;;5033428;28;20513;-75
2022/06/02 05:05:39;;;;;;;7.90;4.40;;;18.90;29.30;;;;;;5029755;28;20844;-74
2022/06/02 05:08:27;;;;;;;9.23;4.63;;;19.00;30.00;;;;;;5033270;28;20903;-76
2022/06/02 05:11:29;;;;;;;11.57;4.30;;;18.90;27.60;;;;;;5030254;28;20447;-75
2022/06/02 05:14:25;;;;;;;7.17;4.30;;;19.10;29.00;;;;;;5025143;28;20433;-74
2022/06/02 05:17:26;;;;;;;6.13;4.20;;;19.10;28.40;;;;;;5026037;28;20470;-75
2022/06/02 05:20:16;;;;;;;7.87;4.30;;;19.20;30.50;;;;;;4984945;28;20428;-78
2022/06/02 05:22:51;;;;;;;6.80;3.90;;;19.10;29.00;;;;;;5029087;28;20562;-78
2022/06/02 05:25:41;;;;;;;9.90;4.27;;;19.20;28.20;;;;;;5025799;28;20449;-78
2022/06/02 05:28:19;;;;;;;8.23;4.73;;;19.20;29.50;;;;;;5019430;28;20807;-77
2022/06/02 05:31:11;;;;;;;21.83;4.23;;;19.10;29.40;;;;;;5024619;28;20463;-77
2022/06/02 05:34:08;;;;;;;6.37;4.17;;;18.70;27.80;;;;;;5028718;28;20442;-78
2022/06/02 05:36:49;;;;;;;7.27;4.37;;;18.70;30.50;;;;;;5002497;28;20476;-77
2022/06/02 05:39:36;;;;;;;22.20;4.67;;;18.50;27.60;;;;;;5022671;28;20456;-77
2022/06/02 05:42:33;;;;;;;7.90;4.77;;;18.50;29.30;;;;;;5032628;28;20422;-77
2022/06/02 05:44:58;;;;;;;10.83;4.67;;;18.80;29.00;;;;;;5029424;28;20959;-78
2022/06/02 05:48:22;;;;;;;7.73;4.30;;;19.20;27.70;;;;;;5024220;28;20533;-76
2022/06/02 05:50:56;;;;;;;9.27;4.67;;;19.40;27.70;;;;;;4935728;28;20772;-75
2022/06/02 05:53:43;;;;;;;6.43;4.30;;;19.40;28.20;;;;;;4942918;28;22142;-75
2022/06/02 05:56:14;;;;;;;5.97;4.10;;;19.50;28.40;;;;;;4943496;28;20938;-76
2022/06/02 05:58:56;;;;;;;14.23;4.63;;;19.50;28.80;;;;;;4933429;29;20460;-76
2022/06/02 06:01:33;;;;;;;14.67;4.50;;;19.60;28.00;;;;;;4941656;28;20491;-76
2022/06/02 06:04:02;;;;;;;15.13;4.70;;;19.50;27.80;;;;;;4943602;28;20450;-75
2022/06/02 06:06:36;;;;;;;10.13;4.73;;;18.70;29.60;;;;;;4947993;28;20465;-75
2022/06/02 06:09:04;;;;;;;11.83;4.27;;;18.30;28.30;;;;;;4945368;28;20539;-75
2022/06/02 06:11:54;;;;;;;9.50;4.67;;;18.50;31.20;;;;;;4947850;29;20428;-75
2022/06/02 06:14:19;;;;;;;7.97;4.60;;;17.90;29.50;;;;;;4951212;28;20553;-75
2022/06/02 06:17:12;;;;;;;8.57;4.23;;;18.40;29.60;;;;;;4949254;28;20472;-76
2022/06/02 06:19:48;;;;;;;10.07;4.30;;;19.00;30.00;;;;;;4949970;29;20186;-75
2022/06/02 06:22:38;;;;;;;9.33;4.80;;;19.50;27.80;;;;;;4948945;28;20433;-75
2022/06/02 06:25:09;;;;;;;7.97;4.73;;;19.30;27.50;;;;;;4945393;29;20429;-75
2022/06/02 06:27:53;;;;;;;8.87;4.77;;;18.80;27.00;;;;;;5000333;28;20457;-75
2022/06/02 06:31:01;;;;;;;7.90;5.03;;;19.10;29.90;;;;;;5028288;28;20512;-76
2022/06/02 06:33:57;;;;;;;12.27;4.70;;;19.30;27.60;;;;;;5026195;28;20487;-75
2022/06/02 06:36:48;;;;;;;10.63;4.60;;;19.30;28.30;;;;;;5026448;28;20535;-75
2022/06/02 06:39:44;;;;;;;8.23;4.83;;;19.20;27.40;;;;;;5030855;28;20424;-76
2022/06/02 06:42:32;;;;;;;13.10;4.27;;;18.60;28.10;;;;;;5027448;28;20445;-76
2022/06/02 06:45:26;;;;;;;7.77;4.70;;;18.60;29.30;;;;;;5011860;28;20426;-76
2022/06/02 06:48:09;;;;;;;6.90;4.53;;;19.00;29.00;;;;;;5027792;28;20429;-75
2022/06/02 06:50:39;;;;;;;9.47;5.10;;;19.50;27.90;;;;;;5025838;28;20469;-74
2022/06/02 06:53:20;;;;;;;6.80;4.80;;;19.60;27.50;;;;;;5022207;28;20430;-73
2022/06/02 06:56:04;;;;;;;6.83;4.90;;;19.70;28.10;;;;;;5025696;28;20462;-73
2022/06/02 06:58:51;;;;;;;10.07;4.70;;;19.60;28.70;;;;;;5023212;28;20449;-73
2022/06/02 07:02:07;;;;;;;8.60;4.70;;;19.60;26.80;;;;;;5031297;28;20442;-74
2022/06/02 07:05:03;;;;;;;8.03;5.07;;;19.20;28.70;;;;;;4952018;28;20882;-74
2022/06/02 07:07:50;;;;;;;7.67;5.20;;;18.80;28.30;;;;;;5013605;28;20438;-73
2022/06/02 07:10:27;;;;;;;19.90;5.17;;;18.60;29.60;;;;;;5027641;28;20422;-74
2022/06/02 07:13:23;;;;;;;10.03;4.80;;;19.40;27.10;;;;;;5030643;28;20450;-73
2022/06/02 07:15:59;;;;;;;6.60;4.83;;;19.50;27.20;;;;;;5019471;28;20447;-73
2022/06/02 07:18:40;;;;;;;7.77;4.50;;;19.00;27.20;;;;;;5027422;28;20450;-73
2022/06/02 07:21:20;;;;;;;14.00;4.70;;;18.90;29.40;;;;;;5026045;28;20473;-73
2022/06/02 07:24:07;;;;;;;6.17;4.40;;;19.30;27.00;;;;;;5018815;28;20436;-73
2022/06/02 07:27:16;;;;;;;6.43;4.17;;;19.50;28.90;;;;;;5021637;28;20439;-73
2022/06/02 07:30:07;;;;;;;10.93;4.90;;;19.70;27.60;;;;;;5022163;28;20459;-73
2022/06/02 07:32:41;;;;;;;8.53;4.87;;;19.40;27.50;;;;;;5023703;28;20424;-73
2022/06/02 07:35:35;;;;;;;8.13;4.70;;;19.10;27.80;;;;;;5022512;28;20449;-73
2022/06/02 07:38:15;;;;;;;9.50;4.40;;;19.60;27.40;;;;;;5025912;28;20457;-73
2022/06/02 07:41:15;;;;;;;7.87;4.10;;;19.40;28.00;;;;;;5029975;28;20431;-73
2022/06/02 07:43:50;;;;;;;9.73;4.70;;;19.70;27.20;;;;;;5019602;28;20435;-74
2022/06/02 07:46:48;;;;;;;13.50;4.17;;;19.90;28.30;;;;;;5027963;28;20463;-73
2022/06/02 07:49:51;;;;;;;12.57;4.20;;;20.40;27.40;;;;;;5027882;28;20442;-73
2022/06/02 07:52:23;;;;;;;9.20;4.30;;;20.50;27.40;;;;;;5024332;28;20412;-73
2022/06/02 07:55:15;;;;;;;9.13;4.30;;;20.60;27.00;;;;;;5027408;28;20420;-74
2022/06/02 07:58:00;;;;;;;10.87;4.77;;;20.40;26.30;;;;;;5025444;28;20940;-73
2022/06/02 08:00:31;;;;;;;7.33;4.30;;;20.40;26.30;;;;;;5012795;28;20964;-74
2022/06/02 08:03:06;;;;;;;7.40;4.30;;;20.60;26.40;;;;;;5027405;28;20806;-74
2022/06/02 08:05:41;;;;;;;9.30;4.50;;;21.20;24.30;;;;;;5029485;28;20866;-74
2022/06/02 08:08:30;;;;;;;13.93;4.77;;;21.00;24.50;;;;;;5026329;28;20527;-74
2022/06/02 08:11:16;;;;;;;7.87;5.07;;;20.30;26.60;;;;;;4995205;28;20434;-74
2022/06/02 08:13:48;;;;;;;13.73;4.37;;;19.50;27.20;;;;;;5024645;28;20873;-73
2022/06/02 08:16:21;;;;;;;5.70;4.00;;;19.90;28.00;;;;;;5028125;28;20522;-73
2022/06/02 08:19:08;;;;;;;6.57;4.90;;;20.50;26.30;;;;;;5033887;28;20959;-73
2022/06/02 08:21:53;;;;;;;7.77;4.60;;;20.90;26.60;;;;;;5034534;28;20440;-73
2022/06/02 08:24:33;;;;;;;7.57;4.50;;;21.10;26.80;;;;;;5028438;28;20413;-73
2022/06/02 08:27:17;;;;;;;13.27;4.30;;;20.20;26.10;;;;;;5018743;28;20460;-73
2022/06/02 08:29:55;;;;;;;8.37;4.40;;;20.50;27.00;;;;;;5025590;28;20452;-74
2022/06/02 08:32:55;;;;;;;5.80;4.03;;;21.10;26.00;;;;;;5026196;28;20417;-74
2022/06/02 08:35:28;;;;;;;7.60;4.50;;;21.40;25.10;;;;;;5022238;28;20481;-74
2022/06/02 08:38:12;;;;;;;6.53;4.50;;;20.80;25.90;;;;;;5025607;28;20449;-74
2022/06/02 08:40:51;;;;;;;9.60;4.53;;;20.30;26.60;;;;;;5035439;28;20422;-73
2022/06/02 08:43:47;;;;;;;7.20;4.20;;;20.50;27.50;;;;;;5018351;28;20421;-74
2022/06/02 08:46:21;;;;;;;10.73;4.93;;;21.50;27.90;;;;;;5030549;28;20447;-73
2022/06/02 08:49:29;;;;;;;7.80;4.30;;;22.00;26.00;;;;;;5029846;28;20425;-74
2022/06/02 08:52:32;;;;;;;6.67;4.33;;;21.60;25.50;;;;;;5022436;28;20460;-73
2022/06/02 08:55:16;;;;;;;7.53;4.33;;;21.80;24.50;;;;;;5030947;28;20500;-74
2022/06/02 08:57:54;;;;;;;12.70;4.40;;;21.40;26.00;;;;;;5027270;28;20501;-75
2022/06/02 09:00:23;;;;;;;7.87;4.60;;;21.80;26.30;;;;;;5033704;28;20428;-75
2022/06/02 09:03:38;;;;;;;4.90;4.03;;;21.90;25.20;;;;;;5033003;28;20424;-74
2022/06/02 09:06:32;;;;;;;9.10;4.23;;;22.30;24.50;;;;;;5012521;28;20482;-75
2022/06/02 09:09:10;;;;;;;6.30;4.13;;;22.30;25.20;;;;;;5022367;28;20424;-74
2022/06/02 09:12:05;;;;;;;7.53;4.47;;;22.40;26.00;;;;;;5026084;28;20416;-74
2022/06/02 09:15:19;;;;;;;7.33;4.50;;;22.90;24.90;;;;;;5025157;28;20411;-72
2022/06/02 09:17:53;;;;;;;7.43;4.27;;;21.80;25.20;;;;;;5009895;28;20464;-74
2022/06/02 09:20:40;;;;;;;6.40;3.77;;;21.10;26.40;;;;;;5024069;28;20495;-73
2022/06/02 09:23:15;;;;;;;7.07;4.70;;;21.70;26.10;;;;;;5024963;28;20415;-73
2022/06/02 09:25:59;;;;;;;5.80;4.27;;;22.30;26.00;;;;;;5032980;28;20415;-73
2022/06/02 09:28:24;;;;;;;22.33;4.70;;;22.40;25.00;;;;;;5032275;28;20906;-73
2022/06/02 09:30:52;;;;;;;5.73;4.27;;;21.70;25.00;;;;;;5027520;28;20539;-74
2022/06/02 09:33:44;;;;;;;6.83;3.93;;;21.70;25.40;;;;;;5030111;28;20226;-73
2022/06/02 09:36:15;;;;;;;9.03;4.30;;;21.50;25.50;;;;;;5024549;28;20459;-73
2022/06/02 09:38:43;;;;;;;8.40;4.07;;;21.80;26.00;;;;;;5017355;28;20494;-73
2022/06/02 09:41:27;;;;;;;10.53;4.40;;;22.50;26.10;;;;;;5032603;28;20992;-74
2022/06/02 09:44:04;;;;;;;7.00;4.30;;;23.20;23.80;;;;;;5009467;28;20475;-74
2022/06/02 09:46:53;;;;;;;5.70;3.93;;;22.80;23.90;;;;;;5022658;28;20447;-73
2022/06/02 09:49:40;;;;;;;6.70;4.40;;;21.80;25.20;;;;;;5021944;28;20937;-73
2022/06/02 09:52:40;;;;;;;14.33;4.70;;;22.10;24.50;;;;;;5025518;28;20435;-73
2022/06/02 09:55:51;;;;;;;9.03;3.93;;;23.10;24.80;;;;;;5020605;28;20509;-74
2022/06/02 09:58:45;;;;;;;6.13;4.10;;;23.60;25.80;;;;;;5020994;28;20454;-74
2022/06/02 10:01:22;;;;;;;8.63;4.20;;;24.00;25.00;;;;;;5032417;28;20514;-74
2022/06/02 10:04:03;;;;;;;7.03;3.50;;;24.60;24.10;;;;;;5028681;28;20431;-73
2022/06/02 10:06:51;;;;;;;8.40;4.30;;;24.80;22.60;;;;;;5029532;28;20435;-73
2022/06/02 10:09:38;;;;;;;4.57;3.43;;;24.70;21.20;;;;;;5032110;28;20418;-73
2022/06/02 10:12:58;;;;;;;17.23;4.07;;;23.80;22.80;;;;;;5032309;28;20416;-74
2022/06/02 10:15:38;;;;;;;7.87;4.00;;;24.60;23.00;;;;;;4987938;28;20428;-74
2022/06/02 10:18:23;;;;;;;7.43;4.27;;;24.40;21.50;;;;;;5017565;28;20451;-73
2022/06/02 10:21:08;;;;;;;7.03;4.13;;;23.70;22.10;;;;;;5023254;28;20454;-74
2022/06/02 10:23:58;;;;;;;6.77;4.10;;;24.40;23.00;;;;;;5031880;28;20416;-74
2022/06/02 10:26:46;;;;;;;6.90;3.93;;;25.10;22.60;;;;;;5032313;28;20443;-74
2022/06/02 10:29:56;;;;;;;7.83;3.80;;;25.30;21.90;;;;;;5026426;28;20477;-74
2022/06/02 10:32:32;;;;;;;6.83;4.03;;;25.50;21.80;;;;;;5032098;28;20450;-73
2022/06/02 10:35:21;;;;;;;6.83;3.80;;;25.00;22.40;;;;;;5016344;28;20505;-73
2022/06/02 10:37:47;;;;;;;9.13;4.10;;;25.40;23.00;;;;;;5031495;28;20455;-73
2022/06/02 10:40:44;;;;;;;10.43;4.07;;;26.00;22.30;;;;;;5026248;28;20571;-74
2022/06/02 10:43:51;;;;;;;11.10;4.50;;;26.60;20.50;;;;;;5025553;28;20287;-73
2022/06/02 10:46:26;;;;;;;8.10;3.83;;;26.30;20.80;;;;;;5004596;28;20447;-74
2022/06/02 10:49:21;;;;;;;5.83;3.63;;;26.90;20.30;;;;;;5031149;28;20418;-74
2022/06/02 10:52:06;;;;;;;8.70;4.00;;;26.90;18.40;;;;;;5005512;28;20434;-73
2022/06/02 10:54:45;;;;;;;10.43;3.90;;;25.30;20.50;;;;;;5031662;28;20497;-73
2022/06/02 10:57:34;;;;;;;5.97;4.07;;;24.20;21.10;;;;;;5024238;28;20562;-73
2022/06/02 11:00:28;;;;;;;7.63;3.83;;;24.20;22.70;;;;;;5023571;28;20438;-74
2022/06/02 11:03:19;;;;;;;6.37;4.10;;;25.20;20.40;;;;;;5022283;28;20423;-73
2022/06/02 11:06:14;;;;;;;7.70;4.20;;;25.00;20.80;;;;;;5030738;28;20488;-74
2022/06/02 11:08:39;;;;;;;5.50;4.13;;;24.10;23.80;;;;;;5015659;28;20480;-74
2022/06/02 11:11:23;;;;;;;7.30;3.90;;;25.30;23.20;;;;;;5022542;28;20956;-74
2022/06/02 11:14:22;;;;;;;5.07;3.73;;;26.40;21.60;;;;;;5023157;28;20180;-74
2022/06/02 11:17:18;;;;;;;7.10;3.83;;;26.70;19.10;;;;;;5022800;28;20448;-73
2022/06/02 11:20:09;;;;;;;5.53;3.67;;;26.70;21.30;;;;;;5023100;28;20428;-74
2022/06/02 11:23:03;;;;;;;5.30;3.60;;;27.10;20.50;;;;;;5018319;28;20900;-74
2022/06/02 11:25:57;;;;;;;6.37;4.07;;;25.90;19.70;;;;;;5017673;28;20423;-74
2022/06/02 11:29:02;;;;;;;11.60;3.50;;;26.80;20.30;;;;;;5016901;28;20958;-75
2022/06/02 11:31:45;;;;;;;14.20;3.60;;;27.40;19.20;;;;;;5022171;28;20427;-74
2022/06/02 11:34:26;;;;;;;7.10;3.40;;;29.10;18.10;;;;;;5031034;28;20418;-74
2022/06/02 11:37:22;;;;;;;5.47;3.20;;;30.40;15.90;;;;;;5021683;28;20497;-74
2022/06/02 11:40:08;;;;;;;7.70;2.93;;;31.50;14.50;;;;;;5019688;28;20498;-75
2022/06/02 11:43:07;;;;;;;8.03;3.30;;;29.80;15.50;;;;;;5017194;28;20759;-75
2022/06/02 11:45:51;;;;;;;5.00;3.00;;;30.80;14.60;;;;;;5022704;28;20423;-75
2022/06/02 11:48:32;;;;;;;9.90;3.30;;;31.20;13.70;;;;;;5030981;28;20423;-75
2022/06/02 11:50:58;;;;;;;4.70;3.03;;;32.20;13.60;;;;;;5030750;28;20427;-75
2022/06/02 11:53:45;;;;;;;8.67;3.03;;;32.80;13.00;;;;;;5022565;28;20426;-75
2022/06/02 11:56:39;;;;;;;7.50;3.00;;;32.50;11.70;;;;;;5028372;28;20579;-74
2022/06/02 11:59:52;;;;;;;10.50;2.87;;;30.80;16.30;;;;;;5028908;28;20459;-75
2022/06/02 12:02:26;;;;;;;10.87;2.87;;;32.20;12.60;;;;;;4964532;28;20431;-75
2022/06/02 12:05:27;;;;;;;4.27;2.80;;;32.50;12.80;;;;;;5024646;28;20462;-74
2022/06/02 12:08:31;;;;;;;4.70;3.10;;;32.50;13.30;;;;;;5028108;28;20434;-74
2022/06/02 12:11:27;;;;;;;7.43;2.90;;;30.90;12.90;;;;;;5017800;28;20667;-74
2022/06/02 12:14:08;;;;;;;5.03;2.90;;;30.40;15.20;;;;;;5016565;28;20793;-75
2022/06/02 12:16:46;;;;;;;9.27;3.27;;;31.00;14.80;;;;;;5029808;28;20442;-74
2022/06/02 12:19:48;;;;;;;6.60;3.00;;;31.20;13.30;;;;;;5028982;28;20418;-74
2022/06/02 12:22:53;;;;;;;5.10;3.13;;;29.70;15.10;;;;;;5020714;28;20953;-74
2022/06/02 12:25:22;;;;;;;6.77;3.23;;;29.60;15.80;;;;;;5030494;28;20438;-74
2022/06/02 12:28:16;;;;;;;7.47;3.30;;;29.40;15.30;;;;;;5030012;28;20438;-74
2022/06/02 12:30:47;;;;;;;7.20;3.10;;;29.60;16.30;;;;;;4983574;28;20815;-74
2022/06/02 12:33:32;;;;;;;6.53;3.30;;;29.70;17.00;;;;;;5029040;28;21000;-74
2022/06/02 12:36:09;;;;;;;12.60;3.37;;;29.00;16.30;;;;;;5021913;28;20454;-75
2022/06/02 12:39:11;;;;;;;6.87;3.20;;;28.90;16.90;;;;;;5018548;28;20482;-74
2022/06/02 12:41:55;;;;;;;6.17;3.13;;;29.40;15.70;;;;;;5016830;28;20426;-74
2022/06/02 12:45:01;;;;;;;5.40;3.33;;;29.80;16.20;;;;;;5025120;28;20426;-75
2022/06/02 12:47:39;;;;;;;5.60;3.50;;;30.10;15.30;;;;;;5025537;28;20490;-74
2022/06/02 12:50:28;;;;;;;7.00;3.00;;;29.60;16.40;;;;;;5026476;28;20451;-74
2022/06/02 12:53:31;;;;;;;6.37;3.00;;;29.80;16.00;;;;;;5027956;28;20835;-74
2022/06/02 12:56:29;;;;;;;9.70;3.20;;;28.20;18.20;;;;;;5020971;28;20450;-74
2022/06/02 12:59:43;;;;;;;10.20;3.40;;;29.10;16.70;;;;;;4947403;28;20540;-74
2022/06/02 13:02:19;;;;;;;7.47;3.57;;;29.50;17.10;;;;;;4949741;29;20438;-73
2022/06/02 13:05:39;;;;;;;4.10;3.07;;;29.50;17.20;;;;;;4949202;28;20427;-74
2022/06/02 13:08:38;;;;;;;5.53;3.07;;;28.90;16.30;;;;;;4909703;28;20440;-74
2022/06/02 13:11:21;;;;;;;6.07;3.70;;;29.50;16.90;;;;;;4934396;29;20453;-74
2022/06/02 13:14:21;;;;;;;11.00;3.33;;;27.60;17.80;;;;;;4934374;29;21007;-74
2022/06/02 13:17:00;;;;;;;6.70;3.47;;;27.80;16.50;;;;;;4935299;28;20601;-74
2022/06/02 13:20:07;;;;;;;9.73;3.47;;;27.80;19.00;;;;;;4934446;28;20649;-74
2022/06/02 13:22:46;;;;;;;6.10;3.63;;;28.30;17.30;;;;;;4936946;28;20424;-75
2022/06/02 13:25:41;;;;;;;6.40;3.67;;;28.50;17.00;;;;;;4934232;28;20548;-75
2022/06/02 13:28:25;;;;;;;10.80;3.83;;;27.90;17.50;;;;;;4941138;28;20889;-75
2022/06/02 13:31:19;;;;;;;4.90;3.40;;;27.90;17.00;;;;;;4941350;28;20493;-75
2022/06/02 13:33:59;;;;;;;9.13;3.60;;;27.40;18.30;;;;;;4934985;28;20471;-74
2022/06/02 13:36:42;;;;;;;5.93;3.40;;;27.30;18.60;;;;;;5009453;28;20458;-74
2022/06/02 13:39:19;;;;;;;10.83;4.13;;;27.40;18.10;;;;;;5017514;28;20541;-74
2022/06/02 13:42:25;;;;;;;6.60;3.90;;;27.40;17.90;;;;;;5032118;28;20419;-74
2022/06/02 13:45:25;;;;;;;8.33;3.80;;;27.50;18.40;;;;;;5024633;28;20420;-74
2022/06/02 13:48:09;;;;;;;9.07;3.57;;;27.40;17.70;;;;;;5025566;28;20427;-74
2022/06/02 13:50:56;;;;;;;7.93;3.80;;;27.60;18.90;;;;;;5035238;28;20419;-75
2022/06/02 13:57:30;;;;;;;5.13;3.80;;;26.40;19.00;;;;;;5019684;28;20502;-74
2022/06/02 13:59:56;;;;;;;8.20;3.90;;;26.20;19.30;;;;;;5021740;28;20515;-74
2022/06/02 14:02:48;;;;;;;9.53;4.00;;;26.30;19.10;;;;;;5023641;28;20642;-75
2022/06/02 14:05:20;;;;;;;10.87;3.83;;;25.60;20.90;;;;;;5032769;28;20431;-75
2022/06/02 14:07:54;;;;;;;6.83;4.30;;;26.40;20.00;;;;;;5036312;28;20478;-74
2022/06/02 14:10:29;;;;;;;7.07;4.20;;;26.20;20.10;;;;;;5015522;28;20968;-74
2022/06/02 14:13:10;;;;;;;8.03;4.13;;;26.00;20.10;;;;;;5027242;28;20517;-74
2022/06/02 14:16:06;;;;;;;9.30;4.43;;;26.30;19.70;;;;;;5020976;28;20427;-74
2022/06/02 14:18:35;;;;;;;9.83;4.40;;;26.40;20.00;;;;;;5020756;28;20514;-73
2022/06/02 14:21:42;;;;;;;7.40;3.90;;;26.40;18.80;;;;;;5023832;28;20937;-75
2022/06/02 14:24:19;;;;;;;5.80;3.70;;;26.00;19.40;;;;;;5024892;28;20433;-76
2022/06/02 14:27:00;;;;;;;5.83;4.10;;;26.20;19.60;;;;;;5026110;28;20438;-75
2022/06/02 14:30:01;;;;;;;8.93;4.10;;;26.50;19.90;;;;;;5024011;28;20465;-75